Time;durP1;ratioP1;P1;durP2;ratioP2;P2;SDS_P1;SDS_P2;PMS_P1;PMS_P2;Temp;Humidity;BMP_temperature;BMP_pressure;BME280_temperature;BME280_humidity;BME280_pressure;Samples;Min_cycle;Max_cycle;Signal;HPM_P1;HPM_P2
2021/12/22 00:00:22;;;;;;;37.95;17.33;;;;;;;-5.27;100.00;101522.47;5057109;28;20138;-59
2021/12/22 00:02:48;;;;;;;31.58;16.00;;;;;;;-5.31;100.00;101532.59;5039499;28;20486;-60
2021/12/22 00:05:22;;;;;;;25.23;16.50;;;;;;;-5.30;100.00;101535.16;5054398;28;20258;-59
2021/12/22 00:07:47;;;;;;;;;;;;;;;-5.32;100.00;101530.84;5039998;28;20097;-59
2021/12/22 00:10:13;;;;;;;23.55;15.43;;;;;;;-5.34;100.00;101523.09;5056559;28;19913;-59
2021/12/22 00:12:39;;;;;;;32.88;15.70;;;;;;;-5.37;100.00;101520.44;5055250;28;20151;-59
2021/12/22 00:15:05;;;;;;;21.85;15.60;;;;;;;-5.37;100.00;101515.31;5055073;28;20035;-59
2021/12/22 00:17:31;;;;;;;21.70;15.02;;;;;;;-5.36;100.00;101499.13;5056324;28;20027;-59
2021/12/22 00:19:56;;;;;;;29.58;16.05;;;;;;;-5.36;100.00;101501.69;5054448;28;20032;-59
2021/12/22 00:22:22;;;;;;;21.05;14.23;;;;;;;-5.38;100.00;101513.59;5055934;28;20098;-59
2021/12/22 00:24:47;;;;;;;25.48;14.90;;;;;;;-5.41;100.00;101510.94;5054390;28;20028;-59
2021/12/22 00:27:13;;;;;;;25.58;15.05;;;;;;;-5.44;100.00;101507.41;5054168;28;20035;-59
2021/12/22 00:29:38;;;;;;;27.20;17.45;;;;;;;-5.47;100.00;101507.28;5055146;28;20032;-59
2021/12/22 00:32:12;;;;;;;21.58;15.35;;;;;;;-5.47;100.00;101509.84;5056329;28;20032;-59
2021/12/22 00:34:47;;;;;;;16.80;10.65;;;;;;;-5.50;100.00;101515.75;5055526;28;20135;-59
2021/12/22 00:37:14;;;;;;;24.17;14.18;;;;;;;-5.54;100.00;101503.66;5054470;28;20050;-59
2021/12/22 00:39:40;;;;;;;29.08;13.88;;;;;;;-5.58;100.00;101509.53;5056609;28;20266;-59
2021/12/22 00:42:05;;;;;;;23.30;13.48;;;;;;;-5.62;100.00;101504.25;5055999;28;20032;-59
2021/12/22 00:44:31;;;;;;;26.98;14.43;;;;;;;-5.65;100.00;101520.38;5052675;28;20028;-59
2021/12/22 00:46:56;;;;;;;25.13;15.25;;;;;;;-5.66;100.00;101510.97;5056766;28;20130;-59
2021/12/22 00:49:21;;;;;;;23.15;15.43;;;;;;;-5.62;100.00;101519.59;5055976;28;21026;-59
2021/12/22 00:51:47;;;;;;;27.33;15.25;;;;;;;-5.61;100.00;101517.06;5055290;28;20032;-59
2021/12/22 00:54:12;;;;;;;22.25;14.40;;;;;;;-5.64;100.00;101516.97;5054390;28;20039;-59
2021/12/22 00:56:38;;;;;;;20.80;13.35;;;;;;;-5.83;100.00;101489.06;5053130;28;21071;-59
2021/12/22 00:59:04;;;;;;;30.67;15.90;;;;;;;-5.92;100.00;101479.44;5054492;28;20114;-59
2021/12/22 01:01:29;;;;;;;28.10;15.68;;;;;;;-5.71;100.00;101515.03;5056060;28;20040;-59
2021/12/22 01:03:56;;;;;;;27.75;15.02;;;;;;;-5.70;100.00;101514.22;5055497;28;20059;-59
2021/12/22 01:06:22;;;;;;;23.70;15.18;;;;;;;-5.71;100.00;101512.47;5054133;28;20042;-59
2021/12/22 01:08:47;;;;;;;26.48;15.68;;;;;;;-5.70;100.00;101504.00;5056823;28;20036;-59
2021/12/22 01:11:13;;;;;;;25.83;16.05;;;;;;;-5.68;100.00;101507.50;5056386;28;20059;-59
2021/12/22 01:13:38;;;;;;;22.27;15.48;;;;;;;-5.72;100.00;101505.63;5056017;28;21008;-59
2021/12/22 01:16:04;;;;;;;29.75;15.25;;;;;;;-5.93;100.00;101466.59;5055448;28;20121;-59
2021/12/22 01:18:32;;;;;;;22.42;14.80;;;;;;;-5.65;100.00;101515.25;5053268;28;20113;-59
2021/12/22 01:23:37;;;;;;;24.08;13.50;;;;;;;-5.87;100.00;101505.16;5053998;28;20075;-59
2021/12/22 01:26:04;;;;;;;23.50;14.23;;;;;;;-5.85;100.00;101511.16;5053210;28;20043;-59
2021/12/22 01:28:30;;;;;;;22.10;14.73;;;;;;;-5.89;100.00;101514.47;5050368;28;20720;-58
2021/12/22 01:31:01;;;;;;;22.17;14.95;;;;;;;-5.91;100.00;101513.53;5051543;28;20032;-58
2021/12/22 01:33:26;;;;;;;21.50;14.07;;;;;;;-5.94;100.00;101506.63;5038102;28;20915;-58
2021/12/22 01:35:52;;;;;;;27.05;13.73;;;;;;;-5.95;100.00;101504.03;5054656;28;20039;-58
2021/12/22 01:38:18;;;;;;;19.05;14.10;;;;;;;-6.08;100.00;101482.28;5055485;28;20135;-58
2021/12/22 01:40:45;;;;;;;18.92;13.20;;;;;;;-6.29;100.00;101446.63;5054174;28;20031;-59
2021/12/22 01:43:11;;;;;;;24.02;14.15;;;;;;;-5.99;100.00;101503.06;5052996;28;20165;-58
2021/12/22 01:46:20;;;;;;;23.77;15.57;;;;;;;-6.01;100.00;101496.13;5055221;28;20032;-58
2021/12/22 01:51:38;;;;;;;21.20;14.85;;;;;;;-6.03;100.00;101506.34;5039173;28;20109;-58
2021/12/22 01:54:08;;;;;;;21.77;15.02;;;;;;;-6.01;100.00;101514.03;5054004;28;20048;-58
2021/12/22 01:56:34;;;;;;;23.27;14.52;;;;;;;-6.01;100.00;101499.56;5053181;28;20093;-58
2021/12/22 01:59:02;;;;;;;22.58;14.48;;;;;;;-6.03;100.00;101500.34;5053945;28;20028;-58
2021/12/22 02:01:29;;;;;;;23.10;14.85;;;;;;;-6.03;100.00;101497.78;5055999;28;20028;-58
2021/12/22 02:03:56;;;;;;;21.92;13.65;;;;;;;-6.01;100.00;101503.81;5055699;28;20051;-58
2021/12/22 02:06:22;;;;;;;24.20;14.20;;;;;;;-6.02;100.00;101497.84;5055002;28;20031;-58
2021/12/22 02:08:47;;;;;;;22.85;14.07;;;;;;;-6.08;100.00;101491.66;5054454;28;20077;-58
2021/12/22 02:11:16;;;;;;;25.25;13.98;;;;;;;-6.05;100.00;101507.09;5054032;28;20079;-58
2021/12/22 02:13:46;;;;;;;30.15;14.13;;;;;;;-6.44;100.00;101458.88;5054054;28;20092;-58
2021/12/22 02:16:13;;;;;;;18.45;13.52;;;;;;;-6.17;100.00;101517.75;5056247;28;20825;-59
2021/12/22 02:18:41;;;;;;;17.33;12.35;;;;;;;-6.18;100.00;101515.16;5064814;28;20027;-58
2021/12/22 02:21:07;;;;;;;23.08;13.30;;;;;;;-6.54;100.00;101466.16;5051101;28;20660;-58
2021/12/22 02:23:33;;;;;;;26.95;15.80;;;;;;;-6.23;100.00;101513.31;5052415;28;20024;-58
2021/12/22 02:26:06;;;;;;;25.02;16.40;;;;;;;-6.69;100.00;101437.53;5052025;28;20861;-58
2021/12/22 02:28:36;;;;;;;25.48;15.30;;;;;;;-6.19;100.00;101504.06;5046012;28;20071;-58
2021/12/22 02:31:02;;;;;;;27.63;15.00;;;;;;;-6.14;100.00;101506.75;5053515;28;20028;-60
2021/12/22 02:33:39;;;;;;;24.60;14.60;;;;;;;-6.16;100.00;101498.19;5055245;28;20135;-58
2021/12/22 02:36:09;;;;;;;22.35;15.63;;;;;;;-6.14;100.00;101509.31;5054551;28;20043;-58
2021/12/22 02:38:39;;;;;;;25.25;14.63;;;;;;;-6.17;100.00;101507.53;5052765;28;20040;-59
2021/12/22 02:41:08;;;;;;;27.58;16.05;;;;;;;-6.22;100.00;101512.47;5051661;28;20028;-59
2021/12/22 02:43:42;;;;;;;26.95;16.08;;;;;;;-6.23;100.00;101513.31;5059285;28;20849;-60
2021/12/22 02:46:07;;;;;;;25.42;15.68;;;;;;;-6.31;100.00;101493.41;5041492;28;20044;-60
2021/12/22 02:48:32;;;;;;;25.20;15.68;;;;;;;-6.26;100.00;101513.22;5075364;28;20152;-59
2021/12/22 02:51:01;;;;;;;29.23;16.30;;;;;;;-6.27;100.00;101506.34;5075665;28;20027;-59
2021/12/22 02:53:38;;;;;;;28.17;17.52;;;;;;;-6.23;100.00;101502.22;5074763;28;20089;-59
2021/12/22 03:04:13;;;;;;;25.85;17.42;;;;;;;-6.35;100.00;101492.41;5074380;28;20110;-59
2021/12/22 03:06:45;;;;;;;38.45;20.02;;;;;;;-6.47;100.00;101486.88;5074762;28;20054;-59
2021/12/22 03:09:20;;;;;;;31.25;20.88;;;;;;;-6.38;100.00;101507.66;5073738;28;20028;-59
2021/12/22 03:11:46;;;;;;;33.55;21.58;;;;;;;-6.41;100.00;101507.53;5073444;28;20159;-59
2021/12/22 03:14:13;;;;;;;32.92;23.40;;;;;;;-6.79;100.00;101457.59;5072253;28;20032;-58
2021/12/22 03:16:42;;;;;;;36.95;24.92;;;;;;;-6.45;100.00;101515.91;5074080;28;20082;-59
2021/12/22 03:19:10;;;;;;;40.13;24.90;;;;;;;-6.40;100.00;101519.50;5074049;28;20092;-59
2021/12/22 03:21:35;;;;;;;37.17;25.13;;;;;;;-6.38;100.00;101522.09;5075572;28;20038;-58
2021/12/22 03:24:00;;;;;;;39.92;24.60;;;;;;;-6.45;100.00;101510.78;5072051;28;20039;-58
2021/12/22 03:26:26;;;;;;;41.70;25.38;;;;;;;-6.43;100.00;101514.28;5074520;28;20031;-58
2021/12/22 03:28:51;;;;;;;31.02;20.63;;;;;;;-6.68;100.00;101470.78;5074283;28;20024;-58
2021/12/22 03:31:17;;;;;;;28.55;19.95;;;;;;;-6.49;100.00;101511.50;5074136;28;20034;-59
2021/12/22 03:33:44;;;;;;;32.28;20.73;;;;;;;-6.51;100.00;101515.69;5074677;28;20775;-58
2021/12/22 03:36:10;;;;;;;30.25;20.02;;;;;;;-6.50;100.00;101508.91;5073626;28;20042;-58
2021/12/22 03:38:36;;;;;;;30.35;19.92;;;;;;;-6.63;100.00;101478.63;5073514;28;20091;-58
2021/12/22 03:41:03;;;;;;;32.50;21.95;;;;;;;-6.43;100.00;101513.41;5051793;28;20093;-58
2021/12/22 03:43:28;;;;;;;36.70;21.80;;;;;;;-6.42;100.00;101505.78;5053580;28;20028;-58
2021/12/22 03:45:54;;;;;;;32.15;22.33;;;;;;;-6.40;100.00;101506.72;5052724;28;20924;-58
2021/12/22 03:48:20;;;;;;;31.73;21.83;;;;;;;-6.73;100.00;101454.44;5052516;28;20377;-58
2021/12/22 03:50:46;;;;;;;32.83;20.80;;;;;;;-6.70;100.00;101467.31;5053629;28;20110;-58
2021/12/22 03:53:11;;;;;;;32.90;23.58;;;;;;;-6.76;100.00;101461.97;5054329;28;20961;-58
2021/12/22 03:55:37;;;;;;;39.35;21.55;;;;;;;-6.61;100.00;101508.50;5052921;28;20032;-58
2021/12/22 03:58:02;;;;;;;36.75;23.00;;;;;;;-6.66;100.00;101510.03;5052660;28;20027;-58
2021/12/22 04:00:30;;;;;;;32.88;22.30;;;;;;;-6.68;100.00;101509.09;5054094;28;20143;-58
2021/12/22 04:02:56;;;;;;;31.02;21.80;;;;;;;-6.70;100.00;101515.84;5059416;28;20131;-58
2021/12/22 04:05:21;;;;;;;32.97;21.60;;;;;;;-6.70;100.00;101522.63;5057556;28;20107;-58
2021/12/22 04:07:46;;;;;;;38.05;23.08;;;;;;;-6.62;100.00;101522.09;5056755;28;21019;-58
2021/12/22 04:10:22;;;;;;;35.63;22.42;;;;;;;-6.57;100.00;101520.59;5054930;28;20060;-58
2021/12/22 04:12:54;;;;;;;41.83;23.52;;;;;;;-6.67;100.00;101503.19;5054652;28;20925;-58
2021/12/22 04:15:21;;;;;;;32.15;21.45;;;;;;;-6.58;100.00;101518.84;5056308;28;20043;-58
2021/12/22 04:17:46;;;;;;;35.83;20.92;;;;;;;-6.60;100.00;101520.47;5055823;28;20043;-58
2021/12/22 04:20:12;;;;;;;35.72;22.20;;;;;;;-6.70;100.00;101507.31;5055308;28;20040;-58
2021/12/22 04:22:38;;;;;;;39.50;21.65;;;;;;;-6.61;100.00;101522.97;5055335;28;20024;-58
2021/12/22 04:25:06;;;;;;;33.40;21.63;;;;;;;-6.67;100.00;101523.63;5057407;28;20035;-58
2021/12/22 04:27:31;;;;;;;39.70;22.65;;;;;;;-6.76;100.00;101508.81;5055881;28;20032;-58
2021/12/22 04:29:56;;;;;;;29.80;21.65;;;;;;;-6.97;100.00;101467.16;5054788;28;20086;-58
2021/12/22 04:32:22;;;;;;;34.03;21.83;;;;;;;-6.72;100.00;101510.66;5057460;28;20039;-58
2021/12/22 04:34:48;;;;;;;30.88;20.85;;;;;;;-6.75;100.00;101500.34;5056133;28;20115;-57
2021/12/22 04:37:13;;;;;;;32.83;21.38;;;;;;;-6.73;100.00;101497.84;5040036;28;20131;-56
2021/12/22 04:39:38;;;;;;;35.10;22.90;;;;;;;-6.77;100.00;101496.00;5056305;28;20032;-56
2021/12/22 04:42:04;;;;;;;44.33;21.38;;;;;;;-6.79;100.00;101505.25;5039886;28;20688;-57
2021/12/22 04:44:29;;;;;;;30.83;20.80;;;;;;;-6.81;100.00;101512.00;5055737;28;20032;-57
2021/12/22 04:46:55;;;;;;;30.90;21.02;;;;;;;-6.84;100.00;101504.25;5056092;28;20047;-56
2021/12/22 04:49:20;;;;;;;32.72;20.92;;;;;;;-6.85;100.00;101505.91;5056655;28;20036;-56
2021/12/22 04:51:51;;;;;;;30.02;18.98;;;;;;;-6.86;100.00;101500.78;5056927;28;20836;-56
2021/12/22 04:54:32;;;;;;;27.75;19.15;;;;;;;-6.90;100.00;101504.03;5054789;28;20043;-57
2021/12/22 04:56:57;;;;;;;28.02;19.75;;;;;;;-6.90;100.00;101499.78;5053053;28;20075;-57
2021/12/22 04:59:23;;;;;;;36.15;20.50;;;;;;;-6.91;100.00;101502.25;5055507;28;20028;-57
2021/12/22 05:01:49;;;;;;;26.60;19.20;;;;;;;-6.87;100.00;101510.13;5055197;28;20038;-57
2021/12/22 05:04:14;;;;;;;29.73;19.38;;;;;;;-6.89;100.00;101511.72;5055616;28;20931;-57
2021/12/22 05:06:40;;;;;;;33.78;21.42;;;;;;;-6.88;100.00;101505.81;5054473;28;20920;-56
2021/12/22 05:09:06;;;;;;;30.98;19.73;;;;;;;-6.87;100.00;101505.00;5055594;28;20032;-56
2021/12/22 05:11:33;;;;;;;34.35;19.45;;;;;;;-6.87;100.00;101493.91;5053498;28;20082;-57
2021/12/22 05:13:59;;;;;;;32.78;19.13;;;;;;;-6.83;100.00;101491.53;5055421;28;20032;-57
2021/12/22 05:16:25;;;;;;;32.13;17.48;;;;;;;-6.84;100.00;101481.25;5056244;28;20032;-56
2021/12/22 05:21:22;;;;;;;26.63;17.80;;;;;;;-6.88;100.00;101482.81;5055632;28;20035;-56
2021/12/22 05:23:52;;;;;;;28.33;18.00;;;;;;;-6.97;100.00;101487.59;5055170;28;20028;-57
2021/12/22 05:26:17;;;;;;;27.10;15.55;;;;;;;-6.97;100.00;101484.16;5055325;28;20028;-56
2021/12/22 05:28:43;;;;;;;23.83;15.32;;;;;;;-7.00;100.00;101479.81;5055094;28;20024;-56
2021/12/22 05:31:09;;;;;;;23.45;15.88;;;;;;;-6.99;100.00;101488.31;5053296;28;20028;-56
2021/12/22 05:33:34;;;;;;;22.25;16.10;;;;;;;-7.13;100.00;101458.88;5053401;28;20038;-57
2021/12/22 05:36:00;;;;;;;24.33;15.18;;;;;;;-7.00;100.00;101489.16;5054873;28;20196;-55
2021/12/22 05:38:25;;;;;;;35.63;16.38;;;;;;;-7.14;100.00;101463.09;5052424;28;20074;-57
2021/12/22 05:40:50;;;;;;;22.92;15.68;;;;;;;-7.00;100.00;101481.50;5052190;28;20882;-56
2021/12/22 05:43:16;;;;;;;22.67;14.45;;;;;;;-6.92;100.00;101485.19;5053063;28;20028;-55
2021/12/22 05:45:41;;;;;;;18.48;13.27;;;;;;;-6.92;100.00;101475.84;5053573;28;20028;-56
2021/12/22 05:48:07;;;;;;;25.85;14.30;;;;;;;-6.90;100.00;101479.34;5055590;28;20035;-56
2021/12/22 05:50:32;;;;;;;23.58;13.70;;;;;;;-6.93;100.00;101471.53;5054555;28;20039;-55
2021/12/22 05:52:57;;;;;;;22.38;15.05;;;;;;;-6.88;100.00;101469.19;5050835;28;20900;-56
2021/12/22 05:55:23;;;;;;;21.25;15.30;;;;;;;-6.89;100.00;101475.97;5051158;28;20024;-55
2021/12/22 05:57:48;;;;;;;18.92;13.55;;;;;;;-7.00;100.00;101455.97;5051735;28;20901;-56
2021/12/22 06:00:14;;;;;;;18.55;13.35;;;;;;;-6.96;100.00;101476.53;5048628;28;20034;-56
2021/12/22 06:02:40;;;;;;;20.02;13.55;;;;;;;-7.01;100.00;101469.53;5046785;28;20949;-55
2021/12/22 06:05:05;;;;;;;21.55;13.68;;;;;;;-7.06;100.00;101471.91;5046874;28;21078;-56
2021/12/22 06:07:31;;;;;;;21.23;13.50;;;;;;;-7.08;100.00;101459.91;5047581;28;20967;-57
2021/12/22 06:09:56;;;;;;;18.38;14.05;;;;;;;-7.20;100.00;101439.91;5053225;28;20032;-55
2021/12/22 06:12:22;;;;;;;26.02;14.00;;;;;;;-7.02;100.00;101460.13;5055256;28;20060;-55
2021/12/22 06:14:47;;;;;;;25.45;14.55;;;;;;;-6.97;100.00;101466.28;5054381;28;20035;-56
2021/12/22 06:17:13;;;;;;;25.02;14.23;;;;;;;-6.99;100.00;101463.66;5054065;28;20819;-56
2021/12/22 06:19:39;;;;;;;23.42;13.50;;;;;;;-7.01;100.00;101467.84;5054513;28;20028;-56
2021/12/22 06:22:04;;;;;;;26.52;15.15;;;;;;;-7.07;100.00;101459.97;5054681;28;20894;-56
2021/12/22 06:24:30;;;;;;;18.02;12.65;;;;;;;-7.08;100.00;101465.00;5054805;28;20024;-55
2021/12/22 06:26:56;;;;;;;25.42;13.20;;;;;;;-7.03;100.00;101460.97;5056330;28;20028;-55
2021/12/22 06:29:22;;;;;;;22.70;14.43;;;;;;;-6.99;100.00;101462.78;5054830;28;20081;-55
2021/12/22 06:31:47;;;;;;;24.05;14.25;;;;;;;-7.01;100.00;101459.31;5059986;28;20027;-54
2021/12/22 06:34:13;;;;;;;20.20;12.48;;;;;;;-7.41;100.00;101411.88;5074060;28;20027;-54
2021/12/22 06:36:38;;;;;;;23.65;14.02;;;;;;;-7.14;100.00;101472.44;5072918;28;20147;-55
2021/12/22 06:39:04;;;;;;;22.58;13.95;;;;;;;-7.18;100.00;101470.59;5054664;28;20897;-55
2021/12/22 06:41:34;;;;;;;22.27;14.32;;;;;;;-7.39;100.00;101440.88;5072309;28;20952;-55
2021/12/22 06:43:59;;;;;;;21.10;14.02;;;;;;;-7.22;100.00;101466.16;5071906;28;20031;-55
2021/12/22 06:46:24;;;;;;;22.60;14.80;;;;;;;-7.20;100.00;101456.91;5074682;28;20032;-55
2021/12/22 06:48:50;;;;;;;21.73;15.32;;;;;;;-7.30;100.00;101440.38;5074048;28;20893;-55
2021/12/22 06:51:15;;;;;;;24.77;15.05;;;;;;;-7.20;100.00;101459.44;5062196;28;20034;-54
2021/12/22 06:53:41;;;;;;;22.23;15.18;;;;;;;-7.21;100.00;101462.81;5054096;28;20093;-56
2021/12/22 06:56:06;;;;;;;27.27;15.73;;;;;;;-7.17;100.00;101462.13;5052386;28;20813;-55
2021/12/22 06:58:32;;;;;;;25.25;15.65;;;;;;;-7.11;100.00;101460.66;5057352;28;20034;-54
2021/12/22 07:00:59;;;;;;;23.75;17.38;;;;;;;-7.06;100.00;101451.47;5073680;28;20928;-55
2021/12/22 07:03:24;;;;;;;22.95;15.23;;;;;;;-7.03;100.00;101456.69;5072028;28;20039;-54
2021/12/22 07:05:49;;;;;;;24.25;15.75;;;;;;;-6.99;100.00;101460.22;5072209;28;20035;-55
2021/12/22 07:08:15;;;;;;;24.00;16.02;;;;;;;-7.03;100.00;101455.84;5071511;28;20490;-54
2021/12/22 07:10:40;;;;;;;27.35;16.33;;;;;;;-7.06;100.00;101458.28;5069071;28;20834;-55
2021/12/22 07:13:07;;;;;;;26.25;15.45;;;;;;;-7.09;100.00;101456.47;5069740;28;20892;-55
2021/12/22 07:15:32;;;;;;;26.33;15.98;;;;;;;-7.12;100.00;101455.50;5072315;28;20036;-55
2021/12/22 07:17:57;;;;;;;26.00;15.70;;;;;;;-7.22;100.00;101453.41;5072369;28;20035;-54
2021/12/22 07:20:23;;;;;;;33.63;16.27;;;;;;;-7.22;100.00;101458.50;5069846;28;20081;-55
2021/12/22 07:22:49;;;;;;;20.10;13.88;;;;;;;-7.19;100.00;101467.16;5069923;28;20032;-55
2021/12/22 07:25:18;;;;;;;26.17;16.80;;;;;;;-7.22;100.00;101458.50;5067546;28;20085;-55
2021/12/22 07:27:44;;;;;;;29.35;16.80;;;;;;;-7.24;100.00;101466.13;5064344;28;20239;-55
2021/12/22 07:30:10;;;;;;;21.70;14.85;;;;;;;-7.25;100.00;101464.38;5055564;28;20070;-55
2021/12/22 07:32:35;;;;;;;23.73;15.90;;;;;;;-7.26;100.00;101475.38;5046083;28;20028;-56
2021/12/22 07:35:34;;;;;;;27.48;17.15;;;;;;;-7.27;100.00;101471.13;5052554;28;20942;-56
2021/12/22 07:38:24;;;;;;;27.05;14.90;;;;;;;-7.21;100.00;101475.56;5037705;28;20148;-56
2021/12/22 07:40:50;;;;;;;25.55;15.90;;;;;;;-7.15;100.00;101470.69;5049773;28;20043;-56
2021/12/22 07:43:16;;;;;;;22.00;15.35;;;;;;;-7.18;100.00;101457.81;5049412;28;20024;-56
2021/12/22 07:45:41;;;;;;;23.83;15.15;;;;;;;-7.13;100.00;101463.97;5049198;28;20024;-56
2021/12/22 07:48:06;;;;;;;30.42;16.60;;;;;;;-7.18;100.00;101468.91;5047404;28;20860;-56
2021/12/22 07:50:32;;;;;;;26.60;16.45;;;;;;;-7.16;100.00;101474.09;5050241;28;20032;-56
2021/12/22 07:52:57;;;;;;;30.17;17.40;;;;;;;-7.10;100.00;101482.84;5049248;28;20020;-55
2021/12/22 07:55:23;;;;;;;24.00;15.05;;;;;;;-7.09;100.00;101473.47;5051135;28;20028;-56
2021/12/22 07:57:48;;;;;;;24.08;16.70;;;;;;;-7.10;100.00;101461.53;5050912;28;20034;-56
2021/12/22 08:00:14;;;;;;;24.15;15.65;;;;;;;-7.17;100.00;101441.69;5049673;28;20775;-55
2021/12/22 08:02:40;;;;;;;21.95;15.20;;;;;;;-6.95;100.00;101459.53;5050055;28;20032;-55
2021/12/22 08:05:06;;;;;;;20.80;15.45;;;;;;;-6.88;100.00;101462.38;5051137;28;20135;-55
2021/12/22 08:07:31;;;;;;;27.48;17.65;;;;;;;-6.81;100.00;101464.34;5051068;28;20028;-56
2021/12/22 08:09:57;;;;;;;25.52;18.00;;;;;;;-6.81;100.00;101461.81;5049391;28;20028;-55
2021/12/22 08:12:22;;;;;;;25.83;16.88;;;;;;;-6.84;100.00;101459.13;5049148;28;20081;-56
2021/12/22 08:14:47;;;;;;;25.00;15.55;;;;;;;-6.81;100.00;101455.81;5031440;28;20135;-56
2021/12/22 08:17:13;;;;;;;24.95;16.60;;;;;;;-6.75;100.00;101461.16;5049766;28;20086;-56
2021/12/22 08:19:40;;;;;;;24.75;16.23;;;;;;;-6.72;100.00;101459.56;5049549;28;20148;-55
2021/12/22 08:22:06;;;;;;;27.55;16.73;;;;;;;-6.69;100.00;101461.34;5050303;28;20082;-56
2021/12/22 08:24:32;;;;;;;26.08;17.00;;;;;;;-6.84;100.00;101427.63;5051444;28;20031;-54
2021/12/22 08:26:58;;;;;;;24.73;15.85;;;;;;;-6.63;100.00;101447.97;5065676;28;20036;-56
2021/12/22 08:29:24;;;;;;;28.88;17.55;;;;;;;-6.55;100.00;101456.75;5072243;28;20089;-54
2021/12/22 08:31:49;;;;;;;21.48;16.50;;;;;;;-6.47;100.00;101450.22;5071238;28;21010;-53
2021/12/22 08:34:22;;;;;;;29.02;17.35;;;;;;;-6.41;100.00;101446.19;5060521;28;20904;-54
2021/12/22 08:39:32;;;;;;;25.67;18.33;;;;;;;-6.19;100.00;101441.81;5068759;28;20093;-55
2021/12/22 08:41:57;;;;;;;29.10;18.15;;;;;;;-6.13;100.00;101439.47;5069628;28;20023;-54
2021/12/22 08:44:23;;;;;;;26.27;17.83;;;;;;;-6.07;100.00;101447.34;5069408;28;20938;-55
2021/12/22 08:46:50;;;;;;;31.05;19.08;;;;;;;-5.96;100.00;101446.03;5065315;28;20037;-55
2021/12/22 08:49:17;;;;;;;26.58;17.98;;;;;;;-5.87;100.00;101441.19;5068320;28;20020;-54
2021/12/22 08:51:42;;;;;;;26.73;18.77;;;;;;;-5.77;100.00;101451.75;5069923;28;20090;-53
2021/12/22 08:54:08;;;;;;;30.10;17.23;;;;;;;-5.66;100.00;101457.22;5068179;28;20844;-55
2021/12/22 08:56:34;;;;;;;26.13;15.88;;;;;;;-5.59;100.00;101453.16;5068813;28;20057;-54
2021/12/22 08:59:00;;;;;;;25.67;15.10;;;;;;;-5.54;100.00;101455.03;5066397;28;20023;-54
2021/12/22 09:01:26;;;;;;;24.92;14.70;;;;;;;-5.49;100.00;101448.38;5067313;28;20848;-55
2021/12/22 09:03:52;;;;;;;21.67;14.60;;;;;;;-5.40;100.00;101451.22;5068064;28;20919;-55
2021/12/22 09:06:18;;;;;;;20.15;13.90;;;;;;;-5.30;100.00;101452.34;5069310;28;20054;-54
2021/12/22 09:08:44;;;;;;;30.20;14.35;;;;;;;-5.23;100.00;101450.03;5070298;28;20031;-54
2021/12/22 09:11:10;;;;;;;18.02;13.25;;;;;;;-5.16;100.00;101451.09;5070380;28;20042;-55
2021/12/22 09:13:37;;;;;;;19.05;14.20;;;;;;;-5.07;100.00;101456.50;5070249;28;20020;-54
2021/12/22 09:16:03;;;;;;;18.98;13.73;;;;;;;-4.98;100.00;101453.34;5069476;28;20032;-55
2021/12/22 09:18:29;;;;;;;17.50;12.65;;;;;;;-4.87;100.00;101451.97;5046226;28;20024;-54
2021/12/22 09:20:54;;;;;;;17.98;13.73;;;;;;;-4.78;100.00;101444.53;5048972;28;20094;-54
2021/12/22 09:23:20;;;;;;;25.65;15.48;;;;;;;-4.67;100.00;101443.13;5063800;28;20128;-54
2021/12/22 09:25:45;;;;;;;22.48;14.90;;;;;;;-4.77;100.00;101410.41;5066984;28;20035;-55
2021/12/22 09:28:12;;;;;;;25.52;15.57;;;;;;;-4.49;100.00;101437.63;5068162;28;20877;-55
2021/12/22 09:30:39;;;;;;;21.27;15.38;;;;;;;-4.39;100.00;101445.63;5061360;28;20020;-54
2021/12/22 09:33:07;;;;;;;30.60;16.83;;;;;;;-4.33;100.00;101443.25;5047546;28;20024;-54
2021/12/22 09:35:33;;;;;;;24.98;15.65;;;;;;;-4.18;100.00;101450.44;5047264;28;20074;-55
2021/12/22 09:37:59;;;;;;;23.67;15.23;;;;;;;-4.35;100.00;101411.53;5019149;28;20864;-55
2021/12/22 09:40:24;;;;;;;26.52;16.35;;;;;;;-3.98;100.00;101448.38;5057728;28;20023;-55
2021/12/22 09:42:50;;;;;;;26.90;16.50;;;;;;;-3.91;100.00;101438.31;5051709;28;20326;-53
2021/12/22 09:45:16;;;;;;;24.35;16.08;;;;;;;-3.81;100.00;101436.84;5046967;28;20881;-54
2021/12/22 09:48:04;;;;;;;20.75;15.45;;;;;;;-3.70;100.00;101437.97;5047240;28;20020;-54
2021/12/22 09:50:49;;;;;;;26.77;16.88;;;;;;;-3.60;100.00;101447.63;5046423;28;20383;-54
2021/12/22 09:53:18;;;;;;;23.77;16.38;;;;;;;-3.49;100.00;101445.31;5047703;28;20024;-55
2021/12/22 09:55:44;;;;;;;23.33;17.60;;;;;;;-3.70;100.00;101389.19;5047365;28;20093;-55
2021/12/22 09:58:10;;;;;;;27.30;18.13;;;;;;;-3.32;100.00;101438.88;5047459;28;20032;-55
2021/12/22 10:00:37;;;;;;;27.80;16.70;;;;;;;-3.24;100.00;101437.31;5048397;28;20172;-55
2021/12/22 10:03:04;;;;;;;29.23;17.55;;;;;;;-3.18;100.00;101429.78;5045171;28;20016;-54
2021/12/22 10:05:29;;;;;;;23.90;17.20;;;;;;;-3.11;100.00;101437.63;5048711;28;20096;-55
2021/12/22 10:08:08;;;;;;;29.00;19.23;;;;;;;-3.03;100.00;101439.50;5044475;28;20028;-54
2021/12/22 10:10:36;;;;;;;24.27;17.83;;;;;;;-2.92;100.00;101433.75;5063349;28;20028;-53
2021/12/22 10:13:10;;;;;;;30.27;19.40;;;;;;;-2.85;100.00;101421.91;5066579;28;20066;-54
2021/12/22 10:15:36;;;;;;;20.63;13.93;;;;;;;-2.77;100.00;101425.50;5066203;28;20027;-54
2021/12/22 10:21:36;;;;;;;28.15;18.88;;;;;;;-3.02;100.00;101341.00;5003579;28;20130;-54
2021/12/22 10:24:04;;;;;;;30.08;19.58;;;;;;;-2.46;100.00;101408.94;5004340;28;20024;-54
2021/12/22 10:26:30;;;;;;;29.95;19.85;;;;;;;-2.31;100.00;101416.94;5004286;28;20061;-54
2021/12/22 10:29:01;;;;;;;29.45;19.65;;;;;;;-2.21;100.00;101412.00;5002825;28;20028;-55
2021/12/22 10:31:47;;;;;;;27.33;19.17;;;;;;;-2.10;100.00;101396.75;5005993;28;20044;-55
2021/12/22 10:34:15;;;;;;;33.50;22.00;;;;;;;-2.01;100.00;101396.91;5021203;28;20164;-55
2021/12/22 10:36:54;;;;;;;32.00;21.40;;;;;;;-1.95;100.00;101385.81;5007641;28;20115;-56
2021/12/22 10:39:33;;;;;;;33.70;20.67;;;;;;;-1.89;100.00;101396.25;5006125;28;20044;-55
2021/12/22 10:42:10;;;;;;;29.90;19.83;;;;;;;-1.91;100.00;101378.19;5004785;28;20219;-55
2021/12/22 10:44:37;;;;;;;29.23;19.50;;;;;;;-1.92;100.00;101362.69;5022630;28;20857;-55
2021/12/22 10:47:22;;;;;;;27.77;19.90;;;;;;;-1.75;100.00;101381.84;5026255;28;20153;-55
2021/12/22 10:50:05;;;;;;;28.58;19.60;;;;;;;-1.66;100.00;101379.44;5026741;28;20032;-55
2021/12/22 10:52:31;;;;;;;31.10;19.90;;;;;;;-1.68;100.00;101366.50;5052764;28;20047;-55
2021/12/22 10:55:08;;;;;;;30.15;19.90;;;;;;;-1.48;100.00;101378.81;5067872;28;20031;-55
2021/12/22 10:57:41;;;;;;;32.03;22.25;;;;;;;-1.43;100.00;101367.75;5067444;28;20019;-57
2021/12/22 11:00:16;;;;;;;27.73;20.60;;;;;;;-1.33;100.00;101372.19;5070575;28;20467;-55
2021/12/22 11:02:49;;;;;;;34.38;20.63;;;;;;;-1.28;100.00;101372.22;5065580;28;20027;-55
2021/12/22 11:05:26;;;;;;;25.85;16.95;;;;;;;-1.23;100.00;101370.59;5065247;28;20032;-55
2021/12/22 11:07:51;;;;;;;28.55;20.27;;;;;;;-1.28;100.00;101367.94;5064161;28;20028;-55
2021/12/22 11:10:28;;;;;;;28.00;21.00;;;;;;;-1.31;100.00;101362.75;5051867;28;20069;-55
2021/12/22 11:13:05;;;;;;;29.15;19.92;;;;;;;-1.33;100.00;101354.13;5051213;28;20936;-55
2021/12/22 11:15:39;;;;;;;29.60;19.88;;;;;;;-1.36;100.00;101356.69;5070676;28;20260;-55
2021/12/22 11:18:27;;;;;;;30.13;20.67;;;;;;;-1.36;100.00;101351.53;5071333;28;20053;-55
2021/12/22 11:21:13;;;;;;;24.40;18.55;;;;;;;-1.35;100.00;101348.06;5071075;28;20148;-55
2021/12/22 11:23:40;;;;;;;29.48;20.30;;;;;;;-1.33;100.00;101348.97;5069343;28;20646;-54
2021/12/22 11:26:05;;;;;;;27.58;20.88;;;;;;;-1.52;100.00;101308.34;5070236;28;20130;-55